Wetterdaten: aktuell Montag, 24.09.2018 01:55
Datum Zeit Temp. A. Feuchte A. Luftdruck Regen Wind Taupunkt Windchill Windben
24.09.2018 01:55 7,8 C 83 % 1022,4 hPa 0,0 l/m 8,8 km/h (2 Bft) 5,1 C 6,0 C 16,1 km/h (3 Bft)
24.09.2018 01:50 7,8 C 83 % 1022,2 hPa 0,0 l/m 8,3 km/h (2 Bft) 5,1 C 6,3 C 14,5 km/h (3 Bft)
24.09.2018 01:45 7,9 C 83 % 1022,1 hPa 0,0 l/m 11,4 km/h (2 Bft) 5,2 C 4,4 C 20,9 km/h (4 Bft)
24.09.2018 01:40 7,8 C 84 % 1022,0 hPa 0,0 l/m 10,8 km/h (2 Bft) 5,3 C 4,7 C 19,3 km/h (3 Bft)
24.09.2018 01:35 7,7 C 83 % 1021,9 hPa 0,0 l/m 9,0 km/h (2 Bft) 5,0 C 5,7 C 19,3 km/h (3 Bft)
24.09.2018 01:30 7,8 C 84 % 1021,8 hPa 0,0 l/m 8,1 km/h (2 Bft) 5,3 C 6,5 C 17,7 km/h (3 Bft)
24.09.2018 01:25 7,9 C 83 % 1021,6 hPa 0,0 l/m 4,9 km/h (1 Bft) 5,2 C 7,9 C 12,9 km/h (3 Bft)
24.09.2018 01:20 8,1 C 83 % 1021,6 hPa 0,0 l/m 7,2 km/h (2 Bft) 5,4 C 7,5 C 16,1 km/h (3 Bft)
24.09.2018 01:15 8,1 C 82 % 1021,4 hPa 0,0 l/m 7,7 km/h (2 Bft) 5,2 C 7,1 C 17,7 km/h (3 Bft)
24.09.2018 01:10 8,2 C 81 % 1021,2 hPa 0,0 l/m 7,8 km/h (2 Bft) 5,1 C 7,1 C 16,1 km/h (3 Bft)
24.09.2018 01:05 8,2 C 81 % 1020,9 hPa 0,0 l/m 11,1 km/h (2 Bft) 5,1 C 4,9 C 25,7 km/h (4 Bft)
24.09.2018 01:00 8,3 C 81 % 1020,6 hPa 0,0 l/m 10,2 km/h (2 Bft) 5,2 C 5,6 C 20,9 km/h (4 Bft)
24.09.2018 00:55 8,3 C 80 % 1020,3 hPa 0,0 l/m 11,4 km/h (2 Bft) 5,1 C 4,9 C 25,7 km/h (4 Bft)
24.09.2018 00:50 8,4 C 80 % 1020,3 hPa 0,0 l/m 14,4 km/h (3 Bft) 5,2 C 3,5 C 30,6 km/h (5 Bft)
24.09.2018 00:45 8,5 C 81 % 1020,2 hPa 0,0 l/m 12,9 km/h (3 Bft) 5,4 C 4,3 C 22,5 km/h (4 Bft)
24.09.2018 00:40 8,6 C 82 % 1020,0 hPa 0,0 l/m 12,9 km/h (3 Bft) 5,7 C 4,4 C 29,0 km/h (5 Bft)
24.09.2018 00:35 8,7 C 81 % 1019,9 hPa 0,0 l/m 18,2 km/h (3 Bft) 5,6 C 2,3 C 32,2 km/h (5 Bft)
24.09.2018 00:30 8,8 C 82 % 1019,5 hPa 0,0 l/m 18,1 km/h (3 Bft) 5,9 C 2,4 C 40,2 km/h (6 Bft)
24.09.2018 00:25 8,9 C 82 % 1019,3 hPa 0,0 l/m 15,7 km/h (3 Bft) 6,0 C 3,5 C 30,6 km/h (5 Bft)
24.09.2018 00:20 8,9 C 84 % 1019,1 hPa 0,0 l/m 11,1 km/h (2 Bft) 6,3 C 5,7 C 22,5 km/h (4 Bft)
24.09.2018 00:15 8,9 C 83 % 1018,6 hPa 0,0 l/m 15,7 km/h (3 Bft) 6,2 C 3,5 C 30,6 km/h (5 Bft)
_ Min-Zeit 01:35 00:50 00:00 - 01:25 01:35 00:35 01:25
Minimum _ 7,7 C 80 % 1017,9 hPa - 4,9 km/h (1 Bft) 5,0 C 2,3 C 12,9 km/h (3 Bft)
_ Max-Zeit 00:00 00:00 01:55 00:00 00:35 00:00 01:25 00:30
Maximum _ 9,1 C 85 % 1022,4 hPa 0,0 l/m 18,2 km/h
NW (3 Bft)
6,6 C 7,9 C 40,2 km/h
W (6 Bft)
Durchschnitt _ 8,4 C 83 % 1020,5 hPa #0,0 l/m 11,3 km/h (2 Bft) 5,5 C 5,2 C 23,2 km/h (4 Bft)